sensor_id;sensor_type;location;lat;lon;timestamp;temperature;humidity
46400;DHT22;32104;50.838;4.388;2023-02-01T00:00:39;8.60;99.90
46400;DHT22;32104;50.838;4.388;2023-02-01T00:06:29;8.60;99.90
46400;DHT22;32104;50.838;4.388;2023-02-01T00:09:24;8.50;99.90
46400;DHT22;32104;50.838;4.388;2023-02-01T00:12:00;8.40;99.90
46400;DHT22;32104;50.838;4.388;2023-02-01T00:14:30;8.40;99.90
46400;DHT22;32104;50.838;4.388;2023-02-01T00:17:08;8.50;99.90
46400;DHT22;32104;50.838;4.388;2023-02-01T00:19:34;8.50;99.90
46400;DHT22;32104;50.838;4.388;2023-02-01T00:22:03;8.60;99.90
46400;DHT22;32104;50.838;4.388;2023-02-01T00:24:29;8.50;99.90
46400;DHT22;32104;50.838;4.388;2023-02-01T00:26:55;8.50;99.90
46400;DHT22;32104;50.838;4.388;2023-02-01T00:29:24;8.40;99.90
46400;DHT22;32104;50.838;4.388;2023-02-01T00:31:51;8.40;99.90
46400;DHT22;32104;50.838;4.388;2023-02-01T00:34:19;8.30;99.90
46400;DHT22;32104;50.838;4.388;2023-02-01T00:36:49;8.40;99.90
46400;DHT22;32104;50.838;4.388;2023-02-01T00:39:18;8.30;99.90
46400;DHT22;32104;50.838;4.388;2023-02-01T00:42:05;8.30;99.90
46400;DHT22;32104;50.838;4.388;2023-02-01T00:44:44;8.30;99.90
46400;DHT22;32104;50.838;4.388;2023-02-01T00:47:15;8.20;99.90
46400;DHT22;32104;50.838;4.388;2023-02-01T00:50:02;8.40;99.90
46400;DHT22;32104;50.838;4.388;2023-02-01T00:52:28;8.30;99.90
46400;DHT22;32104;50.838;4.388;2023-02-01T00:54:57;8.40;99.90
46400;DHT22;32104;50.838;4.388;2023-02-01T00:57:27;8.40;99.90
46400;DHT22;32104;50.838;4.388;2023-02-01T01:00:02;8.30;99.90
46400;DHT22;32104;50.838;4.388;2023-02-01T01:02:57;8.40;99.90
46400;DHT22;32104;50.838;4.388;2023-02-01T01:08:14;8.50;99.90
46400;DHT22;32104;50.838;4.388;2023-02-01T01:10:49;8.50;99.90
46400;DHT22;32104;50.838;4.388;2023-02-01T01:13:24;8.50;99.90
46400;DHT22;32104;50.838;4.388;2023-02-01T01:15:55;8.30;99.90
46400;DHT22;32104;50.838;4.388;2023-02-01T01:18:55;8.30;99.90
46400;DHT22;32104;50.838;4.388;2023-02-01T01:21:22;8.40;99.90
46400;DHT22;32104;50.838;4.388;2023-02-01T01:23:52;8.40;99.90
46400;DHT22;32104;50.838;4.388;2023-02-01T01:26:24;8.30;99.90
46400;DHT22;32104;50.838;4.388;2023-02-01T01:28:55;8.30;99.90
46400;DHT22;32104;50.838;4.388;2023-02-01T01:34:29;8.40;99.90
46400;DHT22;32104;50.838;4.388;2023-02-01T01:36:55;8.50;99.90
46400;DHT22;32104;50.838;4.388;2023-02-01T01:42:15;8.40;99.90
46400;DHT22;32104;50.838;4.388;2023-02-01T01:51:06;8.40;99.90
46400;DHT22;32104;50.838;4.388;2023-02-01T01:53:53;8.40;99.90
46400;DHT22;32104;50.838;4.388;2023-02-01T01:56:22;8.30;99.90
46400;DHT22;32104;50.838;4.388;2023-02-01T01:58:53;8.40;99.90
46400;DHT22;32104;50.838;4.388;2023-02-01T02:01:34;8.40;99.90
46400;DHT22;32104;50.838;4.388;2023-02-01T02:04:04;8.40;99.90
46400;DHT22;32104;50.838;4.388;2023-02-01T02:06:34;8.30;99.90
46400;DHT22;32104;50.838;4.388;2023-02-01T02:09:08;8.30;99.90
46400;DHT22;32104;50.838;4.388;2023-02-01T02:11:47;8.30;99.90
46400;DHT22;32104;50.838;4.388;2023-02-01T02:14:21;8.30;99.90
46400;DHT22;32104;50.838;4.388;2023-02-01T02:20:29;8.30;99.90
46400;DHT22;32104;50.838;4.388;2023-02-01T02:40:51;8.30;99.90
46400;DHT22;32104;50.838;4.388;2023-02-01T02:43:26;8.30;99.90
46400;DHT22;32104;50.838;4.388;2023-02-01T02:46:43;8.40;99.90
46400;DHT22;32104;50.838;4.388;2023-02-01T02:53:18;8.50;99.90
46400;DHT22;32104;50.838;4.388;2023-02-01T02:56:06;8.40;99.90
46400;DHT22;32104;50.838;4.388;2023-02-01T02:58:53;8.30;99.90
46400;DHT22;32104;50.838;4.388;2023-02-01T03:01:41;8.10;99.90
46400;DHT22;32104;50.838;4.388;2023-02-01T03:04:43;8.20;99.90
46400;DHT22;32104;50.838;4.388;2023-02-01T03:10:51;8.10;99.90
46400;DHT22;32104;50.838;4.388;2023-02-01T03:13:54;8.10;99.90
46400;DHT22;32104;50.838;4.388;2023-02-01T03:16:31;8.00;99.90
46400;DHT22;32104;50.838;4.388;2023-02-01T03:19:06;8.10;99.90
46400;DHT22;32104;50.838;4.388;2023-02-01T03:28:09;7.90;99.90
46400;DHT22;32104;50.838;4.388;2023-02-01T03:30:48;7.90;99.90
46400;DHT22;32104;50.838;4.388;2023-02-01T03:33:22;7.80;99.90
46400;DHT22;32104;50.838;4.388;2023-02-01T03:41:45;7.80;99.90
46400;DHT22;32104;50.838;4.388;2023-02-01T03:44:13;7.70;99.90
46400;DHT22;32104;50.838;4.388;2023-02-01T03:49:55;7.70;99.90
46400;DHT22;32104;50.838;4.388;2023-02-01T03:52:37;7.80;99.90
46400;DHT22;32104;50.838;4.388;2023-02-01T03:55:12;7.70;99.90
46400;DHT22;32104;50.838;4.388;2023-02-01T03:57:44;7.60;99.90
46400;DHT22;32104;50.838;4.388;2023-02-01T04:00:28;7.60;99.90
46400;DHT22;32104;50.838;4.388;2023-02-01T04:05:57;7.50;99.90
46400;DHT22;32104;50.838;4.388;2023-02-01T04:08:29;7.60;99.90
46400;DHT22;32104;50.838;4.388;2023-02-01T04:10:55;7.60;99.90
46400;DHT22;32104;50.838;4.388;2023-02-01T04:13:23;7.50;99.90
46400;DHT22;32104;50.838;4.388;2023-02-01T04:15:52;7.60;99.90
46400;DHT22;32104;50.838;4.388;2023-02-01T04:18:24;7.50;99.90
46400;DHT22;32104;50.838;4.388;2023-02-01T04:20:50;7.50;99.90
46400;DHT22;32104;50.838;4.388;2023-02-01T04:23:18;7.40;99.90
46400;DHT22;32104;50.838;4.388;2023-02-01T04:25:44;7.30;99.90
46400;DHT22;32104;50.838;4.388;2023-02-01T04:28:23;7.30;99.90
46400;DHT22;32104;50.838;4.388;2023-02-01T04:30:55;7.30;99.90
46400;DHT22;32104;50.838;4.388;2023-02-01T04:33:21;7.30;99.90
46400;DHT22;32104;50.838;4.388;2023-02-01T04:35:47;7.30;99.90
46400;DHT22;32104;50.838;4.388;2023-02-01T04:38:24;7.20;99.90
46400;DHT22;32104;50.838;4.388;2023-02-01T04:40:51;7.30;99.90
46400;DHT22;32104;50.838;4.388;2023-02-01T04:43:29;7.30;99.90
46400;DHT22;32104;50.838;4.388;2023-02-01T04:45:55;7.10;99.90
46400;DHT22;32104;50.838;4.388;2023-02-01T04:48:23;7.10;99.90
46400;DHT22;32104;50.838;4.388;2023-02-01T04:50:57;7.20;99.90
46400;DHT22;32104;50.838;4.388;2023-02-01T04:53:23;7.10;99.90
46400;DHT22;32104;50.838;4.388;2023-02-01T04:55:49;7.10;99.90
46400;DHT22;32104;50.838;4.388;2023-02-01T04:58:18;7.00;99.90
46400;DHT22;32104;50.838;4.388;2023-02-01T05:00:47;7.00;99.90
46400;DHT22;32104;50.838;4.388;2023-02-01T05:03:13;7.00;99.90
46400;DHT22;32104;50.838;4.388;2023-02-01T05:05:49;7.00;99.90
46400;DHT22;32104;50.838;4.388;2023-02-01T05:08:18;7.00;99.90
46400;DHT22;32104;50.838;4.388;2023-02-01T05:10:47;6.90;99.90
46400;DHT22;32104;50.838;4.388;2023-02-01T05:13:28;7.00;99.90
46400;DHT22;32104;50.838;4.388;2023-02-01T05:16:18;6.90;99.90
46400;DHT22;32104;50.838;4.388;2023-02-01T05:18:52;6.80;99.90
46400;DHT22;32104;50.838;4.388;2023-02-01T05:21:36;6.80;99.90
46400;DHT22;32104;50.838;4.388;2023-02-01T05:24:04;6.70;99.90
46400;DHT22;32104;50.838;4.388;2023-02-01T05:26:43;6.70;99.90
46400;DHT22;32104;50.838;4.388;2023-02-01T05:29:10;6.60;99.90
46400;DHT22;32104;50.838;4.388;2023-02-01T05:31:36;6.50;99.90
46400;DHT22;32104;50.838;4.388;2023-02-01T05:34:09;6.60;99.90
46400;DHT22;32104;50.838;4.388;2023-02-01T05:36:35;6.50;99.90
46400;DHT22;32104;50.838;4.388;2023-02-01T05:39:12;6.60;99.90
46400;DHT22;32104;50.838;4.388;2023-02-01T05:41:40;6.60;99.90
46400;DHT22;32104;50.838;4.388;2023-02-01T05:44:06;6.50;99.90
46400;DHT22;32104;50.838;4.388;2023-02-01T05:46:35;6.50;99.90
46400;DHT22;32104;50.838;4.388;2023-02-01T05:49:05;6.40;99.90
46400;DHT22;32104;50.838;4.388;2023-02-01T05:51:43;6.40;99.90
46400;DHT22;32104;50.838;4.388;2023-02-01T05:54:13;6.40;99.90
46400;DHT22;32104;50.838;4.388;2023-02-01T05:56:39;6.30;99.90
46400;DHT22;32104;50.838;4.388;2023-02-01T05:59:08;6.30;99.90
46400;DHT22;32104;50.838;4.388;2023-02-01T06:01:36;6.40;99.90
46400;DHT22;32104;50.838;4.388;2023-02-01T06:04:02;6.30;99.90
46400;DHT22;32104;50.838;4.388;2023-02-01T06:06:28;6.20;99.90
46400;DHT22;32104;50.838;4.388;2023-02-01T06:08:56;6.20;99.90
46400;DHT22;32104;50.838;4.388;2023-02-01T06:11:35;6.20;99.90
46400;DHT22;32104;50.838;4.388;2023-02-01T06:14:08;6.20;99.90
46400;DHT22;32104;50.838;4.388;2023-02-01T06:16:39;6.20;99.90
46400;DHT22;32104;50.838;4.388;2023-02-01T06:19:07;6.20;99.90
46400;DHT22;32104;50.838;4.388;2023-02-01T06:21:42;6.20;99.90
46400;DHT22;32104;50.838;4.388;2023-02-01T06:24:17;6.20;99.90
46400;DHT22;32104;50.838;4.388;2023-02-01T06:26:49;6.20;99.90
46400;DHT22;32104;50.838;4.388;2023-02-01T06:29:18;6.30;99.90
46400;DHT22;32104;50.838;4.388;2023-02-01T06:31:44;6.30;99.90
46400;DHT22;32104;50.838;4.388;2023-02-01T06:34:18;6.30;99.90
46400;DHT22;32104;50.838;4.388;2023-02-01T06:36:44;6.30;99.90
46400;DHT22;32104;50.838;4.388;2023-02-01T06:39:10;6.30;99.90
46400;DHT22;32104;50.838;4.388;2023-02-01T06:41:42;6.30;99.90
46400;DHT22;32104;50.838;4.388;2023-02-01T06:44:11;6.30;99.90
46400;DHT22;32104;50.838;4.388;2023-02-01T06:46:49;6.30;99.90
46400;DHT22;32104;50.838;4.388;2023-02-01T06:49:19;6.30;99.90
46400;DHT22;32104;50.838;4.388;2023-02-01T06:51:45;6.20;99.90
46400;DHT22;32104;50.838;4.388;2023-02-01T06:54:14;6.30;99.90
46400;DHT22;32104;50.838;4.388;2023-02-01T06:56:40;6.30;99.90
46400;DHT22;32104;50.838;4.388;2023-02-01T06:59:09;6.20;99.90
46400;DHT22;32104;50.838;4.388;2023-02-01T07:01:38;6.20;99.90
46400;DHT22;32104;50.838;4.388;2023-02-01T07:04:14;6.10;99.90
46400;DHT22;32104;50.838;4.388;2023-02-01T07:06:49;6.20;99.90
46400;DHT22;32104;50.838;4.388;2023-02-01T07:09:18;6.20;99.90
46400;DHT22;32104;50.838;4.388;2023-02-01T07:11:44;6.30;99.90
46400;DHT22;32104;50.838;4.388;2023-02-01T07:14:13;6.40;99.90
46400;DHT22;32104;50.838;4.388;2023-02-01T07:16:42;6.30;99.90
46400;DHT22;32104;50.838;4.388;2023-02-01T07:19:22;6.30;99.90
46400;DHT22;32104;50.838;4.388;2023-02-01T07:21:55;6.20;99.90
46400;DHT22;32104;50.838;4.388;2023-02-01T07:24:21;6.30;99.90
46400;DHT22;32104;50.838;4.388;2023-02-01T07:26:47;6.30;99.90
46400;DHT22;32104;50.838;4.388;2023-02-01T07:34:27;6.10;99.90
46400;DHT22;32104;50.838;4.388;2023-02-01T07:36:55;6.20;99.90
46400;DHT22;32104;50.838;4.388;2023-02-01T07:39:24;6.30;99.90
46400;DHT22;32104;50.838;4.388;2023-02-01T07:41:57;6.20;99.90
46400;DHT22;32104;50.838;4.388;2023-02-01T07:44:46;6.30;99.90
46400;DHT22;32104;50.838;4.388;2023-02-01T07:47:12;6.40;99.90
46400;DHT22;32104;50.838;4.388;2023-02-01T07:49:38;6.40;99.90
46400;DHT22;32104;50.838;4.388;2023-02-01T07:52:05;6.30;99.90
46400;DHT22;32104;50.838;4.388;2023-02-01T07:54:49;6.50;99.90
46400;DHT22;32104;50.838;4.388;2023-02-01T07:57:23;6.60;99.90
46400;DHT22;32104;50.838;4.388;2023-02-01T07:59:58;6.50;99.90
46400;DHT22;32104;50.838;4.388;2023-02-01T08:02:44;6.50;99.90
46400;DHT22;32104;50.838;4.388;2023-02-01T08:05:24;6.50;99.90
46400;DHT22;32104;50.838;4.388;2023-02-01T08:07:54;6.60;99.90
46400;DHT22;32104;50.838;4.388;2023-02-01T08:10:27;6.60;99.90
46400;DHT22;32104;50.838;4.388;2023-02-01T08:15:29;6.80;99.90
46400;DHT22;32104;50.838;4.388;2023-02-01T08:17:58;6.80;99.90
46400;DHT22;32104;50.838;4.388;2023-02-01T08:20:28;6.80;99.90
46400;DHT22;32104;50.838;4.388;2023-02-01T08:23:00;6.70;99.90
46400;DHT22;32104;50.838;4.388;2023-02-01T08:25:28;6.60;99.90
46400;DHT22;32104;50.838;4.388;2023-02-01T08:27:58;6.50;99.90
46400;DHT22;32104;50.838;4.388;2023-02-01T08:30:30;6.60;99.90
46400;DHT22;32104;50.838;4.388;2023-02-01T08:33:18;6.50;99.90
46400;DHT22;32104;50.838;4.388;2023-02-01T08:36:07;6.50;99.90
46400;DHT22;32104;50.838;4.388;2023-02-01T08:38:40;6.50;99.90
46400;DHT22;32104;50.838;4.388;2023-02-01T08:41:15;6.60;99.90
46400;DHT22;32104;50.838;4.388;2023-02-01T08:43:44;6.80;99.90
46400;DHT22;32104;50.838;4.388;2023-02-01T08:46:23;6.70;99.90
46400;DHT22;32104;50.838;4.388;2023-02-01T08:49:00;6.70;99.90
46400;DHT22;32104;50.838;4.388;2023-02-01T08:51:49;6.80;99.90
46400;DHT22;32104;50.838;4.388;2023-02-01T08:54:24;6.80;99.90
46400;DHT22;32104;50.838;4.388;2023-02-01T08:56:51;6.80;99.90
46400;DHT22;32104;50.838;4.388;2023-02-01T08:59:19;6.90;99.90
46400;DHT22;32104;50.838;4.388;2023-02-01T09:01:45;7.10;99.90
46400;DHT22;32104;50.838;4.388;2023-02-01T09:04:19;7.10;99.90
46400;DHT22;32104;50.838;4.388;2023-02-01T09:06:50;7.00;99.90
46400;DHT22;32104;50.838;4.388;2023-02-01T09:09:28;7.10;99.90
46400;DHT22;32104;50.838;4.388;2023-02-01T09:11:54;7.10;99.90
46400;DHT22;32104;50.838;4.388;2023-02-01T09:14:22;7.10;99.90
46400;DHT22;32104;50.838;4.388;2023-02-01T09:16:48;7.00;99.90
46400;DHT22;32104;50.838;4.388;2023-02-01T09:19:14;7.10;99.90
46400;DHT22;32104;50.838;4.388;2023-02-01T09:21:44;7.10;99.90
46400;DHT22;32104;50.838;4.388;2023-02-01T09:24:14;7.00;99.90
46400;DHT22;32104;50.838;4.388;2023-02-01T09:26:40;7.10;99.90
46400;DHT22;32104;50.838;4.388;2023-02-01T09:29:07;7.20;99.90
46400;DHT22;32104;50.838;4.388;2023-02-01T09:31:40;7.30;99.90
46400;DHT22;32104;50.838;4.388;2023-02-01T09:34:06;7.30;99.90
46400;DHT22;32104;50.838;4.388;2023-02-01T09:36:43;7.30;99.90
46400;DHT22;32104;50.838;4.388;2023-02-01T09:39:18;7.30;99.90
46400;DHT22;32104;50.838;4.388;2023-02-01T09:47:24;7.60;99.90
46400;DHT22;32104;50.838;4.388;2023-02-01T09:52:38;7.60;99.90
46400;DHT22;32104;50.838;4.388;2023-02-01T09:58:31;7.80;99.90
46400;DHT22;32104;50.838;4.388;2023-02-01T10:01:10;8.00;99.90
46400;DHT22;32104;50.838;4.388;2023-02-01T10:03:41;7.90;99.90
46400;DHT22;32104;50.838;4.388;2023-02-01T10:18:57;8.00;99.90
46400;DHT22;32104;50.838;4.388;2023-02-01T10:27:34;8.20;99.90
46400;DHT22;32104;50.838;4.388;2023-02-01T10:30:21;8.20;99.90
46400;DHT22;32104;50.838;4.388;2023-02-01T10:32:56;8.30;99.90
46400;DHT22;32104;50.838;4.388;2023-02-01T10:35:37;8.30;99.90
46400;DHT22;32104;50.838;4.388;2023-02-01T10:41:18;8.60;99.90
46400;DHT22;32104;50.838;4.388;2023-02-01T10:43:48;8.50;99.90
46400;DHT22;32104;50.838;4.388;2023-02-01T10:46:33;8.60;99.90
46400;DHT22;32104;50.838;4.388;2023-02-01T10:49:12;8.70;99.90
46400;DHT22;32104;50.838;4.388;2023-02-01T10:54:48;8.70;99.90
46400;DHT22;32104;50.838;4.388;2023-02-01T10:57:45;8.80;99.90
46400;DHT22;32104;50.838;4.388;2023-02-01T11:03:36;9.10;99.90
46400;DHT22;32104;50.838;4.388;2023-02-01T11:09:21;9.10;99.90
46400;DHT22;32104;50.838;4.388;2023-02-01T11:14:39;9.40;99.90
46400;DHT22;32104;50.838;4.388;2023-02-01T11:20:05;9.40;99.90
46400;DHT22;32104;50.838;4.388;2023-02-01T11:22:35;9.40;99.90
46400;DHT22;32104;50.838;4.388;2023-02-01T11:25:09;9.50;99.90
46400;DHT22;32104;50.838;4.388;2023-02-01T11:27:42;9.60;99.90
46400;DHT22;32104;50.838;4.388;2023-02-01T11:30:35;9.70;99.90
46400;DHT22;32104;50.838;4.388;2023-02-01T11:33:07;9.70;99.90
46400;DHT22;32104;50.838;4.388;2023-02-01T11:35:40;9.90;99.90
46400;DHT22;32104;50.838;4.388;2023-02-01T11:38:30;9.90;99.90
46400;DHT22;32104;50.838;4.388;2023-02-01T11:41:25;9.90;99.90
46400;DHT22;32104;50.838;4.388;2023-02-01T11:44:15;9.80;99.90
46400;DHT22;32104;50.838;4.388;2023-02-01T11:46:54;9.70;99.90
46400;DHT22;32104;50.838;4.388;2023-02-01T11:49:33;9.60;99.90
46400;DHT22;32104;50.838;4.388;2023-02-01T12:01:46;9.60;99.90
46400;DHT22;32104;50.838;4.388;2023-02-01T12:26:45;10.50;99.90
46400;DHT22;32104;50.838;4.388;2023-02-01T12:29:44;11.00;99.90
46400;DHT22;32104;50.838;4.388;2023-02-01T12:32:57;11.20;99.90
46400;DHT22;32104;50.838;4.388;2023-02-01T12:45:21;11.30;99.90
46400;DHT22;32104;50.838;4.388;2023-02-01T12:50:50;11.70;99.90
46400;DHT22;32104;50.838;4.388;2023-02-01T12:59:38;11.80;99.90
46400;DHT22;32104;50.838;4.388;2023-02-01T13:11:13;11.70;99.90
46400;DHT22;32104;50.838;4.388;2023-02-01T13:14:17;11.90;99.90
46400;DHT22;32104;50.838;4.388;2023-02-01T13:22:47;12.00;99.90
46400;DHT22;32104;50.838;4.388;2023-02-01T13:25:49;12.00;99.90
46400;DHT22;32104;50.838;4.388;2023-02-01T13:29:08;12.00;99.90
46400;DHT22;32104;50.838;4.388;2023-02-01T13:34:49;12.00;99.90
46400;DHT22;32104;50.838;4.388;2023-02-01T13:40:44;11.80;99.90
46400;DHT22;32104;50.838;4.388;2023-02-01T13:43:46;11.80;99.90
46400;DHT22;32104;50.838;4.388;2023-02-01T13:53:36;11.40;99.90
46400;DHT22;32104;50.838;4.388;2023-02-01T13:56:16;11.40;99.90
46400;DHT22;32104;50.838;4.388;2023-02-01T14:22:57;11.30;99.90
46400;DHT22;32104;50.838;4.388;2023-02-01T14:25:34;11.20;99.90
46400;DHT22;32104;50.838;4.388;2023-02-01T14:28:28;11.00;99.90
46400;DHT22;32104;50.838;4.388;2023-02-01T14:40:47;10.90;99.90
46400;DHT22;32104;50.838;4.388;2023-02-01T14:46:35;10.90;99.90
46400;DHT22;32104;50.838;4.388;2023-02-01T14:49:12;11.10;99.90
46400;DHT22;32104;50.838;4.388;2023-02-01T14:51:58;11.00;99.90
46400;DHT22;32104;50.838;4.388;2023-02-01T14:55:09;11.00;99.90
46400;DHT22;32104;50.838;4.388;2023-02-01T15:07:16;10.90;99.90
46400;DHT22;32104;50.838;4.388;2023-02-01T15:09:57;10.90;99.90
46400;DHT22;32104;50.838;4.388;2023-02-01T15:12:28;10.90;99.90
46400;DHT22;32104;50.838;4.388;2023-02-01T15:15:21;10.90;99.90
46400;DHT22;32104;50.838;4.388;2023-02-01T15:18:22;10.70;99.90
46400;DHT22;32104;50.838;4.388;2023-02-01T15:21:02;10.70;99.90
46400;DHT22;32104;50.838;4.388;2023-02-01T15:23:51;10.70;99.90
46400;DHT22;32104;50.838;4.388;2023-02-01T15:27:01;10.60;99.90
46400;DHT22;32104;50.838;4.388;2023-02-01T15:29:29;10.20;99.90
46400;DHT22;32104;50.838;4.388;2023-02-01T15:32:00;10.10;99.90
46400;DHT22;32104;50.838;4.388;2023-02-01T15:34:48;10.30;99.90
46400;DHT22;32104;50.838;4.388;2023-02-01T15:37:37;10.30;99.90
46400;DHT22;32104;50.838;4.388;2023-02-01T15:40:25;10.40;99.90
46400;DHT22;32104;50.838;4.388;2023-02-01T15:42:59;10.30;99.90
46400;DHT22;32104;50.838;4.388;2023-02-01T15:48:55;10.40;99.90
46400;DHT22;32104;50.838;4.388;2023-02-01T15:51:27;10.40;99.90
46400;DHT22;32104;50.838;4.388;2023-02-01T15:54:16;10.40;99.90
46400;DHT22;32104;50.838;4.388;2023-02-01T15:56:55;10.40;99.90
46400;DHT22;32104;50.838;4.388;2023-02-01T15:59:44;10.30;99.90
46400;DHT22;32104;50.838;4.388;2023-02-01T16:02:57;10.30;99.90
46400;DHT22;32104;50.838;4.388;2023-02-01T16:05:42;10.40;99.90
46400;DHT22;32104;50.838;4.388;2023-02-01T16:11:39;10.30;99.90
46400;DHT22;32104;50.838;4.388;2023-02-01T16:14:18;10.20;99.90
46400;DHT22;32104;50.838;4.388;2023-02-01T16:17:00;10.00;99.90
46400;DHT22;32104;50.838;4.388;2023-02-01T16:19:30;10.00;99.90
46400;DHT22;32104;50.838;4.388;2023-02-01T16:22:15;10.00;99.90
46400;DHT22;32104;50.838;4.388;2023-02-01T16:24:47;10.10;99.90
46400;DHT22;32104;50.838;4.388;2023-02-01T16:27:16;10.20;99.90
46400;DHT22;32104;50.838;4.388;2023-02-01T16:29:55;10.30;99.90
46400;DHT22;32104;50.838;4.388;2023-02-01T16:32:42;10.20;99.90
46400;DHT22;32104;50.838;4.388;2023-02-01T16:35:29;10.20;99.90
46400;DHT22;32104;50.838;4.388;2023-02-01T16:38:09;10.00;99.90
46400;DHT22;32104;50.838;4.388;2023-02-01T16:40:40;10.10;99.90
46400;DHT22;32104;50.838;4.388;2023-02-01T16:43:22;10.00;99.90
46400;DHT22;32104;50.838;4.388;2023-02-01T16:45:51;10.00;99.90
46400;DHT22;32104;50.838;4.388;2023-02-01T16:48:54;10.10;99.90
46400;DHT22;32104;50.838;4.388;2023-02-01T16:51:32;10.10;99.90
46400;DHT22;32104;50.838;4.388;2023-02-01T16:54:01;10.20;99.90
46400;DHT22;32104;50.838;4.388;2023-02-01T16:56:33;10.10;99.90
46400;DHT22;32104;50.838;4.388;2023-02-01T16:59:09;10.00;99.90
46400;DHT22;32104;50.838;4.388;2023-02-01T17:01:52;10.00;99.90
46400;DHT22;32104;50.838;4.388;2023-02-01T17:04:22;10.00;99.90
46400;DHT22;32104;50.838;4.388;2023-02-01T17:07:16;10.00;99.90
46400;DHT22;32104;50.838;4.388;2023-02-01T17:10:22;10.00;99.90
46400;DHT22;32104;50.838;4.388;2023-02-01T17:13:24;10.00;99.90
46400;DHT22;32104;50.838;4.388;2023-02-01T17:16:06;9.90;99.90
46400;DHT22;32104;50.838;4.388;2023-02-01T17:19:10;10.00;99.90
46400;DHT22;32104;50.838;4.388;2023-02-01T17:22:07;9.90;99.90
46400;DHT22;32104;50.838;4.388;2023-02-01T17:34:25;9.90;99.90
46400;DHT22;32104;50.838;4.388;2023-02-01T17:37:16;9.80;99.90
46400;DHT22;32104;50.838;4.388;2023-02-01T17:40:10;9.80;99.90
46400;DHT22;32104;50.838;4.388;2023-02-01T17:43:05;9.70;99.90
46400;DHT22;32104;50.838;4.388;2023-02-01T17:46:12;9.90;99.90
46400;DHT22;32104;50.838;4.388;2023-02-01T17:49:17;9.90;99.90
46400;DHT22;32104;50.838;4.388;2023-02-01T17:52:24;9.90;99.90
46400;DHT22;32104;50.838;4.388;2023-02-01T17:54:57;9.80;99.90
46400;DHT22;32104;50.838;4.388;2023-02-01T17:57:39;9.90;99.90
46400;DHT22;32104;50.838;4.388;2023-02-01T18:01:37;9.80;99.90
46400;DHT22;32104;50.838;4.388;2023-02-01T18:04:07;9.80;99.90
46400;DHT22;32104;50.838;4.388;2023-02-01T18:07:07;9.80;99.90
46400;DHT22;32104;50.838;4.388;2023-02-01T18:16:34;9.80;99.90
46400;DHT22;32104;50.838;4.388;2023-02-01T18:19:09;9.80;99.90
46400;DHT22;32104;50.838;4.388;2023-02-01T18:22:07;9.90;99.90
46400;DHT22;32104;50.838;4.388;2023-02-01T18:24:46;9.80;99.90
46400;DHT22;32104;50.838;4.388;2023-02-01T18:30:57;9.70;99.90
46400;DHT22;32104;50.838;4.388;2023-02-01T18:33:57;9.80;99.90
46400;DHT22;32104;50.838;4.388;2023-02-01T18:39:56;9.90;99.90
46400;DHT22;32104;50.838;4.388;2023-02-01T18:42:31;9.90;99.90
46400;DHT22;32104;50.838;4.388;2023-02-01T18:48:46;9.80;99.90
46400;DHT22;32104;50.838;4.388;2023-02-01T18:54:50;9.80;99.90
46400;DHT22;32104;50.838;4.388;2023-02-01T19:00:48;9.90;99.90
46400;DHT22;32104;50.838;4.388;2023-02-01T19:07:00;9.90;99.90
46400;DHT22;32104;50.838;4.388;2023-02-01T19:10:22;9.90;99.90
46400;DHT22;32104;50.838;4.388;2023-02-01T19:13:04;9.80;99.90
46400;DHT22;32104;50.838;4.388;2023-02-01T19:15:38;9.80;99.90
46400;DHT22;32104;50.838;4.388;2023-02-01T19:18:12;9.90;99.90
46400;DHT22;32104;50.838;4.388;2023-02-01T19:21:02;9.80;99.90
46400;DHT22;32104;50.838;4.388;2023-02-01T19:23:39;9.80;99.90
46400;DHT22;32104;50.838;4.388;2023-02-01T19:26:42;9.80;99.90
46400;DHT22;32104;50.838;4.388;2023-02-01T19:29:19;9.90;99.90
46400;DHT22;32104;50.838;4.388;2023-02-01T19:34:29;9.80;99.90
46400;DHT22;32104;50.838;4.388;2023-02-01T19:37:05;9.70;99.90
46400;DHT22;32104;50.838;4.388;2023-02-01T19:40:22;9.70;99.90
46400;DHT22;32104;50.838;4.388;2023-02-01T19:42:50;9.60;99.90
46400;DHT22;32104;50.838;4.388;2023-02-01T19:49:35;9.60;99.90
46400;DHT22;32104;50.838;4.388;2023-02-01T19:52:24;9.60;99.90
46400;DHT22;32104;50.838;4.388;2023-02-01T19:54:57;9.50;99.90
46400;DHT22;32104;50.838;4.388;2023-02-01T20:04:08;9.40;99.90
46400;DHT22;32104;50.838;4.388;2023-02-01T20:07:06;9.50;99.90
46400;DHT22;32104;50.838;4.388;2023-02-01T20:16:44;9.60;99.90
46400;DHT22;32104;50.838;4.388;2023-02-01T20:19:33;9.60;99.90
46400;DHT22;32104;50.838;4.388;2023-02-01T20:22:07;9.70;99.90
46400;DHT22;32104;50.838;4.388;2023-02-01T20:24:47;9.60;99.90
46400;DHT22;32104;50.838;4.388;2023-02-01T20:27:42;9.60;99.90
46400;DHT22;32104;50.838;4.388;2023-02-01T20:30:40;9.60;99.90
46400;DHT22;32104;50.838;4.388;2023-02-01T20:34:09;9.60;99.90
46400;DHT22;32104;50.838;4.388;2023-02-01T20:43:07;9.50;99.90
46400;DHT22;32104;50.838;4.388;2023-02-01T20:45:49;9.50;99.90
46400;DHT22;32104;50.838;4.388;2023-02-01T20:48:16;9.60;99.90
46400;DHT22;32104;50.838;4.388;2023-02-01T20:50:45;9.70;99.90
46400;DHT22;32104;50.838;4.388;2023-02-01T21:08:58;9.50;99.90
46400;DHT22;32104;50.838;4.388;2023-02-01T21:11:51;9.50;99.90
46400;DHT22;32104;50.838;4.388;2023-02-01T21:14:47;9.60;99.90
46400;DHT22;32104;50.838;4.388;2023-02-01T21:17:15;9.60;99.90
46400;DHT22;32104;50.838;4.388;2023-02-01T21:20:22;9.50;99.90
46400;DHT22;32104;50.838;4.388;2023-02-01T21:23:04;9.50;99.90
46400;DHT22;32104;50.838;4.388;2023-02-01T21:26:05;9.60;99.90
46400;DHT22;32104;50.838;4.388;2023-02-01T21:28:47;9.50;99.90
46400;DHT22;32104;50.838;4.388;2023-02-01T21:31:20;9.60;99.90
46400;DHT22;32104;50.838;4.388;2023-02-01T21:33:58;9.70;99.90
46400;DHT22;32104;50.838;4.388;2023-02-01T21:36:59;9.60;99.90
46400;DHT22;32104;50.838;4.388;2023-02-01T21:39:28;9.60;99.90
46400;DHT22;32104;50.838;4.388;2023-02-01T21:42:15;9.60;99.90
46400;DHT22;32104;50.838;4.388;2023-02-01T21:44:48;9.60;99.90
46400;DHT22;32104;50.838;4.388;2023-02-01T21:47:20;9.60;99.90
46400;DHT22;32104;50.838;4.388;2023-02-01T21:50:17;9.60;99.90
46400;DHT22;32104;50.838;4.388;2023-02-01T21:55:40;9.70;99.90
46400;DHT22;32104;50.838;4.388;2023-02-01T21:58:24;9.60;99.90
46400;DHT22;32104;50.838;4.388;2023-02-01T22:00:58;9.70;99.90
46400;DHT22;32104;50.838;4.388;2023-02-01T22:06:38;9.70;99.90
46400;DHT22;32104;50.838;4.388;2023-02-01T22:09:38;9.70;99.90
46400;DHT22;32104;50.838;4.388;2023-02-01T22:12:58;9.60;99.90
46400;DHT22;32104;50.838;4.388;2023-02-01T22:15:38;9.70;99.90
46400;DHT22;32104;50.838;4.388;2023-02-01T22:18:51;9.60;99.90
46400;DHT22;32104;50.838;4.388;2023-02-01T22:21:35;9.60;99.90
46400;DHT22;32104;50.838;4.388;2023-02-01T22:24:28;9.60;99.90
46400;DHT22;32104;50.838;4.388;2023-02-01T22:27:07;9.70;99.90
46400;DHT22;32104;50.838;4.388;2023-02-01T22:29:56;9.50;99.90
46400;DHT22;32104;50.838;4.388;2023-02-01T22:32:51;9.50;99.90